Time;durP1;ratioP1;P1;durP2;ratioP2;P2;SDS_P1;SDS_P2;PMS_P1;PMS_P2;Temp;Humidity;BMP_temperature;BMP_pressure;BME280_temperature;BME280_humidity;BME280_pressure;Samples;Min_cycle;Max_cycle;Signal;HPM_P1;HPM_P2
2023/06/25 00:00:35;;;;;;;27.05;17.52;;;;;;;31.66;76.77;97326.84;5026766;28;20057;-70
2023/06/25 00:03:05;;;;;;;27.95;16.77;;;;;;;31.67;77.96;97322.16;5024946;28;20417;-71
2023/06/25 00:05:35;;;;;;;27.98;17.23;;;;;;;31.67;76.78;97309.28;4998194;28;20137;-70
2023/06/25 00:08:05;;;;;;;24.40;16.75;;;;;;;31.67;77.67;97314.75;5025369;28;20084;-71
2023/06/25 00:10:34;;;;;;;36.08;17.73;;;;;;;31.65;77.65;97311.56;5023797;28;20045;-70
2023/06/25 00:13:04;;;;;;;29.42;18.17;;;;;;;31.65;77.52;97309.63;5022882;28;20845;-70
2023/06/25 00:15:33;;;;;;;23.17;16.60;;;;;;;31.65;77.82;97312.34;5026211;28;20057;-70
2023/06/25 00:18:03;;;;;;;25.70;16.80;;;;;;;31.64;77.73;97305.28;5023299;28;20038;-70
2023/06/25 00:20:33;;;;;;;25.23;17.95;;;;;;;31.65;77.65;97315.09;5025602;28;20041;-71
2023/06/25 00:23:05;;;;;;;22.63;17.75;;;;;;;31.66;77.65;97315.88;5036462;28;20048;-70
2023/06/25 00:25:41;;;;;;;29.20;16.52;;;;;;;31.61;77.53;97308.78;5025919;28;20045;-70
2023/06/25 00:28:11;;;;;;;24.38;17.05;;;;;;;31.64;78.17;97316.25;5026066;28;20049;-69
2023/06/25 00:30:40;;;;;;;22.48;17.30;;;;;;;31.65;77.91;97325.25;5008078;28;20045;-70
2023/06/25 00:33:10;;;;;;;22.70;16.58;;;;;;;31.67;78.15;97314.75;5002350;28;20108;-71
2023/06/25 00:35:55;;;;;;;27.95;17.25;;;;;;;31.71;77.70;97318.34;5016906;28;20053;-70
2023/06/25 00:38:28;;;;;;;27.67;17.67;;;;;;;31.70;78.37;97322.22;5016002;28;20132;-70
2023/06/25 00:40:58;;;;;;;24.27;17.30;;;;;;;31.71;77.86;97323.00;5023110;28;20037;-70
2023/06/25 00:43:28;;;;;;;26.85;18.08;;;;;;;31.74;78.12;97333.22;5023875;28;20380;-69
2023/06/25 00:45:57;;;;;;;26.40;17.70;;;;;;;31.72;77.73;97333.63;5017522;28;20503;-70
2023/06/25 00:48:27;;;;;;;25.52;17.13;;;;;;;31.73;78.00;97332.47;5030690;28;20050;-71
2023/06/25 00:51:01;;;;;;;26.08;16.85;;;;;;;31.79;78.27;97343.88;4980574;28;20053;-70
2023/06/25 00:53:36;;;;;;;25.17;16.13;;;;;;;31.80;77.48;97343.53;5010209;28;20073;-70
2023/06/25 00:56:11;;;;;;;28.35;17.00;;;;;;;31.85;77.37;97342.44;5004691;28;20606;-70
2023/06/25 00:58:41;;;;;;;24.83;16.58;;;;;;;31.85;77.03;97356.94;5020198;28;20067;-70
2023/06/25 01:01:26;;;;;;;24.38;16.27;;;;;;;31.87;76.88;97367.50;5015096;28;20131;-70
2023/06/25 01:04:03;;;;;;;24.70;16.02;;;;;;;31.87;76.63;97364.75;5000251;28;20045;-70
2023/06/25 01:06:41;;;;;;;23.98;16.67;;;;;;;31.82;77.01;97362.34;4982470;28;20084;-70
2023/06/25 01:09:12;;;;;;;25.42;16.77;;;;;;;31.91;76.83;97371.88;5027859;28;20116;-71
2023/06/25 01:12:02;;;;;;;23.30;16.50;;;;;;;31.87;76.85;97362.81;5030686;28;20080;-70
2023/06/25 01:14:35;;;;;;;27.35;15.43;;;;;;;31.84;76.79;97366.28;5013857;28;20053;-70
2023/06/25 01:17:05;;;;;;;33.42;17.83;;;;;;;31.97;76.50;97364.97;5029069;28;20120;-71
2023/06/25 01:19:35;;;;;;;26.27;17.13;;;;;;;31.99;76.48;97367.34;5013539;28;20065;-69
2023/06/25 01:22:07;;;;;;;22.20;16.30;;;;;;;32.06;76.33;97376.47;4997405;28;20699;-69
2023/06/25 01:24:36;;;;;;;27.98;17.63;;;;;;;32.13;76.37;97373.13;4983119;28;20542;-68
2023/06/25 01:27:09;;;;;;;25.67;17.02;;;;;;;32.09;75.96;97373.03;4975647;28;20415;-69
2023/06/25 01:29:38;;;;;;;27.15;17.27;;;;;;;32.20;75.44;97375.16;4987368;28;20117;-69
2023/06/25 01:32:08;;;;;;;25.88;17.95;;;;;;;32.22;74.83;97381.09;4995359;28;20054;-69
2023/06/25 01:34:38;;;;;;;24.50;17.45;;;;;;;32.30;74.40;97377.28;4991692;28;20050;-69
2023/06/25 01:37:07;;;;;;;27.73;18.35;;;;;;;32.26;74.51;97382.72;5002332;28;20074;-70
2023/06/25 01:39:37;;;;;;;29.88;17.17;;;;;;;32.41;74.39;97383.72;4996848;28;20046;-69
2023/06/25 01:42:06;;;;;;;29.92;17.48;;;;;;;32.44;73.72;97393.97;4985813;28;20056;-69
2023/06/25 01:44:37;;;;;;;25.40;16.85;;;;;;;32.50;74.47;97390.53;4993556;28;20068;-69
2023/06/25 01:47:07;;;;;;;29.90;18.38;;;;;;;32.54;74.07;97388.66;4986565;28;20042;-69
2023/06/25 01:49:36;;;;;;;30.02;16.63;;;;;;;32.59;73.52;97390.28;4973889;28;20833;-69
2023/06/25 01:52:09;;;;;;;28.52;16.95;;;;;;;32.78;72.61;97390.22;4991323;28;20050;-70
2023/06/25 01:54:39;;;;;;;31.92;16.25;;;;;;;32.90;72.10;97392.75;5004498;28;20054;-68
2023/06/25 01:57:08;;;;;;;35.50;16.20;;;;;;;33.18;71.65;97392.38;4991151;28;20046;-68
2023/06/25 01:59:38;;;;;;;21.95;16.10;;;;;;;33.35;71.13;97402.00;4991550;28;20053;-69
2023/06/25 02:02:07;;;;;;;30.33;17.05;;;;;;;33.66;70.29;97393.38;4989547;28;20769;-69
2023/06/25 02:04:37;;;;;;;23.17;16.10;;;;;;;33.66;70.45;97390.63;4996202;28;20117;-69
2023/06/25 02:07:06;;;;;;;24.88;15.90;;;;;;;33.80;70.14;97385.31;4985658;28;20755;-69
2023/06/25 02:09:38;;;;;;;23.83;15.82;;;;;;;34.04;69.61;97392.19;4993676;28;20074;-70
2023/06/25 02:12:08;;;;;;;31.27;15.90;;;;;;;34.04;69.28;97394.16;4987818;28;20046;-71
2023/06/25 02:14:38;;;;;;;23.17;16.15;;;;;;;34.13;68.62;97394.63;4967473;28;20045;-71
2023/06/25 02:17:09;;;;;;;25.77;15.13;;;;;;;34.18;68.71;97395.13;4989996;28;21126;-71
2023/06/25 02:19:39;;;;;;;20.58;14.90;;;;;;;34.14;67.93;97396.22;4998481;28;20046;-71
2023/06/25 02:22:21;;;;;;;26.75;15.75;;;;;;;34.22;68.00;97397.88;4988987;28;20061;-71
2023/06/25 02:24:51;;;;;;;22.45;15.90;;;;;;;33.86;68.46;97396.72;5023263;28;20641;-71
2023/06/25 02:40:18;;;;;;;26.70;13.80;;;;;;;35.63;63.78;97408.28;5065843;27;20487;-69
2023/06/25 02:42:48;;;;;;;17.70;14.65;;;;;;;35.16;63.28;97412.78;5062593;28;20103;-70
2023/06/25 02:45:17;;;;;;;21.23;13.82;;;;;;;35.76;63.21;97417.81;5060970;28;20056;-69
2023/06/25 02:47:47;;;;;;;19.10;13.80;;;;;;;36.07;61.18;97425.34;5050246;28;20061;-69
2023/06/25 02:50:16;;;;;;;19.98;14.15;;;;;;;35.89;60.94;97427.28;5057691;28;20463;-69
2023/06/25 02:52:48;;;;;;;22.67;14.55;;;;;;;35.94;61.58;97435.94;5061443;28;20048;-69
2023/06/25 02:55:17;;;;;;;24.73;14.18;;;;;;;36.04;60.58;97426.91;5062519;28;20040;-68
2023/06/25 02:57:46;;;;;;;18.08;13.02;;;;;;;36.12;60.49;97441.53;5061286;28;20048;-69
2023/06/25 03:00:16;;;;;;;21.50;14.05;;;;;;;35.59;61.43;97436.59;5043414;28;20450;-69
2023/06/25 03:02:46;;;;;;;27.67;14.48;;;;;;;35.81;60.11;97433.94;5055782;28;20052;-69
2023/06/25 03:05:17;;;;;;;23.38;14.55;;;;;;;35.70;60.97;97439.44;5055252;28;20222;-69
2023/06/25 03:07:54;;;;;;;25.88;13.15;;;;;;;36.06;59.95;97440.31;5060631;28;20051;-69
2023/06/25 03:10:36;;;;;;;26.33;13.88;;;;;;;36.20;61.11;97429.34;5042951;28;20048;-69
2023/06/25 03:13:07;;;;;;;23.10;13.90;;;;;;;36.10;59.69;97434.81;5079121;28;20467;-69
2023/06/25 03:15:37;;;;;;;23.13;13.25;;;;;;;36.40;60.26;97430.53;5060651;28;20052;-69
2023/06/25 03:18:07;;;;;;;21.15;14.63;;;;;;;36.04;60.28;97426.13;5060007;28;20047;-68
2023/06/25 03:20:36;;;;;;;19.63;13.48;;;;;;;36.07;59.63;97435.59;5043987;28;20353;-69
2023/06/25 03:23:06;;;;;;;22.15;13.73;;;;;;;35.90;59.73;97428.84;5061341;28;20071;-69
2023/06/25 03:25:36;;;;;;;18.27;13.50;;;;;;;35.92;60.23;97430.06;5058956;28;20681;-68
2023/06/25 03:28:24;;;;;;;23.27;13.10;;;;;;;35.88;59.92;97433.97;5091140;28;20515;-68
2023/06/25 03:30:55;;;;;;;22.98;13.75;;;;;;;36.37;59.40;97428.59;5061821;28;20063;-69
2023/06/25 03:33:25;;;;;;;20.60;13.07;;;;;;;36.20;58.28;97434.06;5059923;28;20520;-68
2023/06/25 03:35:54;;;;;;;20.40;13.25;;;;;;;36.15;59.59;97435.25;5060795;28;20102;-68
2023/06/25 03:38:24;;;;;;;23.40;14.25;;;;;;;35.65;60.16;97430.75;5059542;28;20070;-70
2023/06/25 03:40:54;;;;;;;23.52;12.55;;;;;;;35.95;61.32;97432.00;5048979;28;20044;-69
2023/06/25 03:43:24;;;;;;;26.10;13.65;;;;;;;36.07;59.12;97433.59;5047547;28;20063;-69
2023/06/25 03:45:54;;;;;;;28.63;12.98;;;;;;;35.66;59.83;97435.88;5046788;28;20052;-70
2023/06/25 03:48:24;;;;;;;40.95;15.90;;;;;;;35.92;60.37;97443.03;5064623;28;20131;-70
2023/06/25 03:50:53;;;;;;;26.77;14.77;;;;;;;36.25;59.67;97428.94;5065256;28;20048;-70
2023/06/25 03:53:23;;;;;;;23.23;13.70;;;;;;;36.33;60.71;97441.59;5065609;28;20479;-70
2023/06/25 03:55:53;;;;;;;23.17;13.35;;;;;;;36.30;59.30;97436.03;5066257;28;20857;-70
2023/06/25 03:58:23;;;;;;;26.73;13.27;;;;;;;36.65;58.67;97436.09;5065912;28;20060;-71
2023/06/25 04:00:52;;;;;;;26.48;13.50;;;;;;;36.86;57.05;97435.31;5067445;28;20147;-70
2023/06/25 04:03:22;;;;;;;32.58;13.27;;;;;;;36.57;58.46;97440.00;5066133;28;20098;-69
2023/06/25 04:05:52;;;;;;;27.42;14.13;;;;;;;36.76;57.13;97445.16;5062388;28;20048;-69
2023/06/25 04:08:22;;;;;;;21.25;13.45;;;;;;;36.86;58.86;97444.38;5047942;28;20044;-70
2023/06/25 04:10:53;;;;;;;28.17;13.85;;;;;;;36.89;58.28;97449.09;5065909;28;20079;-69
2023/06/25 04:13:30;;;;;;;23.52;13.52;;;;;;;37.29;57.73;97442.34;5063671;28;20052;-70
2023/06/25 04:16:52;;;;;;;24.45;14.45;;;;;;;37.14;56.80;97445.53;5065447;28;20066;-70
2023/06/25 04:19:32;;;;;;;25.00;13.32;;;;;;;37.29;57.88;97447.88;5063448;28;20135;-70
2023/06/25 04:22:02;;;;;;;24.67;14.30;;;;;;;37.01;57.62;97439.59;5065505;28;20055;-69
2023/06/25 04:24:32;;;;;;;23.90;14.02;;;;;;;37.05;55.72;97440.38;5066447;28;20079;-70
2023/06/25 04:27:02;;;;;;;35.47;16.48;;;;;;;37.28;57.40;97437.19;5065079;28;20079;-70
2023/06/25 04:29:32;;;;;;;32.00;13.93;;;;;;;37.55;55.33;97448.59;5065641;28;20501;-70
2023/06/25 04:32:02;;;;;;;29.88;15.05;;;;;;;37.57;56.11;97446.22;5066160;28;20127;-70
2023/06/25 04:34:33;;;;;;;33.78;15.45;;;;;;;37.53;56.49;97456.50;5047894;28;20785;-71
2023/06/25 04:37:04;;;;;;;23.25;13.07;;;;;;;37.86;54.37;97452.41;5063953;28;20040;-72
2023/06/25 04:39:33;;;;;;;27.33;14.50;;;;;;;37.94;53.64;97457.50;5065991;28;20052;-73
2023/06/25 04:42:03;;;;;;;24.85;14.73;;;;;;;37.74;54.82;97453.66;5064440;28;20063;-73
2023/06/25 04:44:33;;;;;;;27.90;14.50;;;;;;;37.57;55.78;97447.03;5064290;28;20052;-73
2023/06/25 04:47:02;;;;;;;25.52;13.43;;;;;;;37.79;56.12;97450.47;5064856;28;20106;-72
2023/06/25 04:49:33;;;;;;;27.95;13.88;;;;;;;37.87;54.00;97454.00;5053781;28;20044;-73
2023/06/25 04:52:02;;;;;;;20.65;12.88;;;;;;;37.78;55.23;97446.13;5066199;28;20063;-73
2023/06/25 04:54:32;;;;;;;27.20;14.00;;;;;;;37.56;55.21;97439.91;5066482;28;20068;-74
2023/06/25 04:57:01;;;;;;;19.67;11.65;;;;;;;37.87;54.18;97443.72;5066387;28;20052;-74
2023/06/25 04:59:30;;;;;;;23.30;13.55;;;;;;;38.05;53.85;97447.22;5065133;28;20136;-74
2023/06/25 05:02:00;;;;;;;31.88;12.77;;;;;;;38.28;52.04;97451.41;5064869;28;20109;-73
2023/06/25 05:04:29;;;;;;;16.35;12.15;;;;;;;38.32;52.63;97449.41;5066118;28;20048;-71
2023/06/25 05:06:58;;;;;;;26.15;13.25;;;;;;;38.33;54.31;97454.50;5066190;28;20049;-71
2023/06/25 05:09:28;;;;;;;22.55;12.40;;;;;;;38.13;54.57;97445.97;5065539;28;20052;-72
2023/06/25 05:11:57;;;;;;;25.17;13.13;;;;;;;38.43;52.20;97452.91;5066011;28;20052;-73
2023/06/25 05:14:27;;;;;;;21.60;12.57;;;;;;;38.24;53.99;97448.66;5066010;28;20046;-72
2023/06/25 05:16:58;;;;;;;21.27;13.13;;;;;;;38.50;51.99;97448.13;5062222;28;20590;-72
2023/06/25 05:19:28;;;;;;;23.38;12.90;;;;;;;39.17;51.28;97441.19;5065585;28;20056;-72
2023/06/25 05:21:58;;;;;;;19.50;12.68;;;;;;;39.17;50.23;97434.88;5066486;28;20076;-73
2023/06/25 05:24:28;;;;;;;22.42;13.20;;;;;;;38.82;51.28;97430.44;5067167;28;20044;-72
2023/06/25 05:26:57;;;;;;;28.02;13.20;;;;;;;38.19;52.88;97433.28;5067563;28;20056;-72
2023/06/25 05:29:27;;;;;;;23.95;13.32;;;;;;;38.58;50.67;97432.25;5065924;28;20048;-71
2023/06/25 05:31:56;;;;;;;22.58;13.25;;;;;;;38.74;52.70;97428.91;5066138;28;20096;-70
2023/06/25 05:34:25;;;;;;;28.02;13.40;;;;;;;38.68;52.30;97414.75;5061303;28;20065;-72
2023/06/25 05:36:55;;;;;;;24.48;12.00;;;;;;;38.45;52.21;97420.88;5063993;28;20468;-71
2023/06/25 05:39:28;;;;;;;23.45;11.77;;;;;;;38.37;53.92;97419.34;5065305;28;20048;-72
2023/06/25 05:41:58;;;;;;;24.42;12.70;;;;;;;38.38;53.48;97417.31;5066537;28;20059;-71
2023/06/25 05:44:28;;;;;;;22.42;11.80;;;;;;;38.64;52.17;97413.97;5065789;28;20048;-71
2023/06/25 05:46:57;;;;;;;16.88;11.77;;;;;;;38.50;51.98;97416.88;5065710;28;20051;-73
2023/06/25 05:49:27;;;;;;;26.45;13.27;;;;;;;38.63;51.42;97417.97;5091040;28;20395;-71
2023/06/25 05:51:56;;;;;;;21.95;13.00;;;;;;;38.46;51.54;97413.38;5066258;28;20749;-71
2023/06/25 05:54:26;;;;;;;18.63;11.63;;;;;;;38.49;53.17;97412.53;5063373;28;20555;-72
2023/06/25 05:56:57;;;;;;;30.50;13.00;;;;;;;38.75;51.59;97414.69;5064342;28;20135;-71
2023/06/25 05:59:26;;;;;;;18.08;12.38;;;;;;;38.36;52.37;97409.44;5063551;28;20048;-70
2023/06/25 06:01:56;;;;;;;20.13;11.50;;;;;;;38.65;53.54;97415.56;5064641;28;20048;-70
2023/06/25 06:04:27;;;;;;;22.08;14.13;;;;;;;38.35;51.01;97404.31;5065019;28;20095;-73
2023/06/25 06:06:58;;;;;;;24.97;13.73;;;;;;;38.47;51.51;97412.16;5063695;28;20036;-70
2023/06/25 06:09:27;;;;;;;23.55;13.38;;;;;;;38.48;51.57;97417.28;5064872;28;20052;-71
2023/06/25 06:11:57;;;;;;;24.45;11.43;;;;;;;38.54;53.54;97418.44;5065459;28;20056;-71
2023/06/25 06:14:27;;;;;;;19.65;11.10;;;;;;;38.35;51.21;97418.94;5064771;28;20044;-70
2023/06/25 06:16:58;;;;;;;29.85;12.60;;;;;;;38.52;52.09;97423.56;5065906;28;20055;-72
2023/06/25 06:19:27;;;;;;;22.25;12.77;;;;;;;38.65;52.64;97421.88;5044651;28;20057;-70
2023/06/25 06:21:57;;;;;;;24.35;10.88;;;;;;;38.75;51.93;97417.44;5044931;28;20045;-71
2023/06/25 06:24:27;;;;;;;17.92;12.40;;;;;;;38.62;50.88;97424.69;5034219;28;20103;-71
2023/06/25 06:26:58;;;;;;;19.30;11.20;;;;;;;38.59;51.92;97417.22;5041989;28;20134;-68
2023/06/25 06:29:28;;;;;;;19.10;10.82;;;;;;;38.54;52.25;97420.41;5042344;28;20052;-68
2023/06/25 06:31:58;;;;;;;24.08;11.93;;;;;;;38.58;51.75;97421.97;5044364;28;20056;-70
2023/06/25 06:34:28;;;;;;;23.23;11.52;;;;;;;38.71;51.85;97421.44;5064829;28;20049;-71
2023/06/25 06:36:58;;;;;;;26.77;12.20;;;;;;;38.15;50.13;97423.44;5061884;28;20426;-71
2023/06/25 06:39:27;;;;;;;25.25;11.43;;;;;;;38.60;50.73;97413.22;5056128;28;20048;-70
2023/06/25 06:41:57;;;;;;;18.08;11.05;;;;;;;38.97;51.45;97426.38;5067415;28;20044;-72
2023/06/25 06:44:26;;;;;;;20.52;11.60;;;;;;;39.09;47.54;97417.53;5063129;28;20124;-76
2023/06/25 06:46:56;;;;;;;29.63;11.98;;;;;;;38.93;49.83;97420.09;5064136;28;20484;-72
2023/06/25 06:49:25;;;;;;;22.73;11.65;;;;;;;38.42;48.16;97418.09;5060722;28;20052;-72
2023/06/25 06:51:55;;;;;;;21.63;11.32;;;;;;;38.67;49.21;97413.19;5064749;28;20734;-69
2023/06/25 06:54:27;;;;;;;21.42;10.82;;;;;;;38.70;48.84;97417.88;5061996;28;20040;-69
2023/06/25 06:56:56;;;;;;;20.73;11.35;;;;;;;38.45;48.13;97420.09;5063698;28;20141;-71
2023/06/25 06:59:26;;;;;;;21.90;10.32;;;;;;;38.47;50.80;97414.91;5042958;28;20476;-75
2023/06/25 07:01:56;;;;;;;18.33;11.02;;;;;;;38.89;49.07;97408.25;5064966;28;20135;-76
2023/06/25 07:04:25;;;;;;;21.27;11.80;;;;;;;38.81;47.71;97407.50;5062963;28;20040;-71
2023/06/25 07:06:55;;;;;;;23.35;11.38;;;;;;;38.97;49.03;97407.78;5065298;28;20487;-75
2023/06/25 07:09:26;;;;;;;28.83;10.75;;;;;;;39.02;46.30;97403.75;5062518;28;20048;-71
2023/06/25 07:11:56;;;;;;;24.13;10.73;;;;;;;38.92;47.85;97402.69;5045701;28;20044;-71
2023/06/25 07:14:25;;;;;;;22.00;11.23;;;;;;;38.96;48.05;97389.56;5063834;28;20060;-70
2023/06/25 07:16:55;;;;;;;18.17;10.27;;;;;;;39.03;47.03;97388.72;5067687;28;20543;-69
2023/06/25 07:19:26;;;;;;;22.55;10.60;;;;;;;38.77;46.69;97384.59;5067778;28;20075;-69
2023/06/25 07:21:55;;;;;;;18.30;9.73;;;;;;;38.86;43.93;97375.81;5068428;28;20471;-71
2023/06/25 07:24:25;;;;;;;26.27;9.40;;;;;;;38.79;46.52;97382.22;5069519;28;20045;-70
2023/06/25 07:26:54;;;;;;;21.85;10.13;;;;;;;38.98;45.00;97378.09;5065961;28;20056;-72
2023/06/25 07:29:24;;;;;;;22.38;11.95;;;;;;;38.67;44.95;97366.13;5068042;28;20048;-72
2023/06/25 07:31:54;;;;;;;17.00;8.77;;;;;;;38.72;44.06;97371.22;5067982;28;20048;-74
2023/06/25 07:34:23;;;;;;;25.38;9.00;;;;;;;38.86;45.96;97371.06;5071294;28;20040;-72
2023/06/25 07:36:53;;;;;;;21.30;10.00;;;;;;;38.97;44.82;97368.22;5068003;28;20135;-70
2023/06/25 07:39:33;;;;;;;18.27;9.20;;;;;;;38.89;46.03;97366.72;5066501;28;20052;-73
2023/06/25 07:42:03;;;;;;;29.13;11.07;;;;;;;38.65;46.51;97371.25;5065508;28;20072;-73
2023/06/25 07:44:33;;;;;;;24.23;10.50;;;;;;;38.69;44.15;97363.72;5068374;28;20079;-68
2023/06/25 07:47:05;;;;;;;;;;;;;;;38.77;47.11;97358.91;5067346;28;20418;-72
2023/06/25 07:49:35;;;;;;;17.83;9.18;;;;;;;38.82;48.78;97356.47;5068193;28;20298;-72
2023/06/25 07:52:05;;;;;;;20.25;10.98;;;;;;;38.47;48.13;97349.28;5066865;28;20037;-72
2023/06/25 07:54:34;;;;;;;24.38;10.20;;;;;;;38.58;47.45;97336.16;5068197;28;20044;-73
2023/06/25 07:57:04;;;;;;;23.30;10.25;;;;;;;38.34;47.70;97341.88;5067122;28;20044;-73
2023/06/25 07:59:34;;;;;;;18.05;9.65;;;;;;;38.24;48.95;97332.47;5066697;28;20416;-69
2023/06/25 08:02:10;;;;;;;21.85;9.73;;;;;;;38.03;48.20;97338.97;5063424;28;20041;-73
2023/06/25 08:04:40;;;;;;;21.55;9.90;;;;;;;38.07;46.29;97342.47;5063317;28;20344;-72
2023/06/25 08:07:10;;;;;;;25.92;9.88;;;;;;;38.12;47.80;97333.75;5065686;28;20602;-67
2023/06/25 08:09:41;;;;;;;20.35;10.55;;;;;;;38.09;45.31;97336.56;5066545;28;20076;-68
2023/06/25 08:12:14;;;;;;;18.30;9.07;;;;;;;38.21;45.91;97325.78;5063698;28;20352;-66
2023/06/25 08:14:46;;;;;;;23.05;10.07;;;;;;;38.33;47.47;97332.03;5064227;28;20049;-66
2023/06/25 08:17:16;;;;;;;21.95;10.63;;;;;;;38.15;46.48;97323.88;5064291;28;20471;-66
2023/06/25 08:19:47;;;;;;;25.55;11.70;;;;;;;38.02;46.78;97328.31;5064336;28;20122;-69
2023/06/25 08:22:17;;;;;;;25.23;11.30;;;;;;;38.14;48.15;97320.31;5065467;28;20040;-71
2023/06/25 08:24:46;;;;;;;26.33;14.07;;;;;;;38.18;46.48;97317.50;5065403;28;20475;-70
2023/06/25 08:27:16;;;;;;;18.67;10.52;;;;;;;38.31;48.49;97317.78;5064649;28;20036;-67
2023/06/25 08:29:46;;;;;;;21.80;11.30;;;;;;;38.27;47.69;97319.81;5066280;28;20049;-69
2023/06/25 08:32:16;;;;;;;22.05;12.15;;;;;;;38.33;46.61;97315.41;5061213;28;20040;-69
2023/06/25 08:34:45;;;;;;;24.52;13.18;;;;;;;38.33;44.92;97310.66;5065893;28;20045;-69
2023/06/25 08:37:15;;;;;;;27.75;12.52;;;;;;;38.39;47.39;97299.94;5065846;28;20407;-68
2023/06/25 08:39:46;;;;;;;21.75;10.65;;;;;;;38.24;47.16;97296.50;5065941;28;20044;-69
2023/06/25 08:42:16;;;;;;;40.20;10.32;;;;;;;37.69;48.05;97302.84;5064575;28;20048;-69
2023/06/25 08:44:45;;;;;;;29.52;10.25;;;;;;;37.06;49.62;97292.09;5064490;28;20147;-69
2023/06/25 08:47:19;;;;;;;22.52;9.20;;;;;;;37.11;48.98;97284.19;5065148;28;20047;-69
2023/06/25 08:49:50;;;;;;;21.40;9.02;;;;;;;36.71;48.94;97292.97;5066501;28;20049;-70
2023/06/25 08:52:21;;;;;;;18.77;8.13;;;;;;;36.32;47.54;97301.31;5064559;28;20041;-70
2023/06/25 08:54:51;;;;;;;19.73;9.63;;;;;;;36.21;47.64;97300.50;5064519;28;20667;-70
2023/06/25 08:57:21;;;;;;;18.00;8.05;;;;;;;36.27;45.98;97299.75;5045948;28;20047;-68
2023/06/25 08:59:50;;;;;;;14.43;8.98;;;;;;;36.19;46.88;97291.88;5065164;28;20133;-69
2023/06/25 09:02:20;;;;;;;24.15;9.80;;;;;;;35.98;46.88;97281.63;5063851;28;20059;-69
2023/06/25 09:04:50;;;;;;;17.83;8.48;;;;;;;35.85;46.78;97274.91;5065010;28;20714;-69
2023/06/25 09:07:19;;;;;;;20.08;9.05;;;;;;;35.74;47.34;97288.69;5063982;28;20045;-69
2023/06/25 09:09:56;;;;;;;19.85;9.02;;;;;;;35.08;49.68;97306.53;5064237;28;20040;-67
2023/06/25 09:12:26;;;;;;;17.23;9.02;;;;;;;35.06;50.05;97308.88;5064208;28;20547;-67
2023/06/25 09:14:57;;;;;;;16.48;8.30;;;;;;;34.77;50.27;97312.69;5065736;28;20558;-68
2023/06/25 09:17:27;;;;;;;16.52;8.00;;;;;;;34.69;51.96;97289.84;5063590;28;20056;-68
2023/06/25 09:20:02;;;;;;;20.13;9.50;;;;;;;34.72;52.01;97280.81;5064176;28;20037;-67
2023/06/25 09:22:32;;;;;;;19.92;8.32;;;;;;;34.73;52.45;97290.66;5065537;28;20051;-64
2023/06/25 09:25:02;;;;;;;14.57;7.68;;;;;;;34.47;52.56;97299.91;5061096;28;20109;-68
2023/06/25 09:27:33;;;;;;;19.58;9.40;;;;;;;34.43;52.19;97293.59;5065791;28;20045;-69
2023/06/25 09:30:03;;;;;;;19.10;8.27;;;;;;;34.65;52.25;97291.78;5044322;28;20041;-68
2023/06/25 09:32:32;;;;;;;25.92;9.23;;;;;;;34.87;51.61;97289.94;5043107;28;20473;-68
2023/06/25 09:35:06;;;;;;;17.05;8.23;;;;;;;34.98;51.87;97294.31;5065062;28;20084;-67
2023/06/25 09:37:39;;;;;;;15.65;8.25;;;;;;;34.90;51.16;97297.41;5066861;28;20048;-67
2023/06/25 09:40:09;;;;;;;17.27;7.93;;;;;;;35.08;49.81;97298.28;5063036;28;20037;-68
2023/06/25 09:42:42;;;;;;;17.50;7.85;;;;;;;35.30;50.90;97294.47;5065073;28;20072;-68
2023/06/25 09:45:17;;;;;;;16.52;7.53;;;;;;;35.42;50.55;97283.06;5064091;28;20048;-69
2023/06/25 09:47:49;;;;;;;9.68;7.00;;;;;;;35.66;49.38;97278.03;5048154;28;20048;-70
2023/06/25 09:50:26;;;;;;;16.80;8.38;;;;;;;35.75;49.37;97281.19;5063577;28;20114;-68
2023/06/25 09:52:58;;;;;;;12.55;7.45;;;;;;;35.91;49.52;97267.81;5059798;28;20044;-67
2023/06/25 09:55:29;;;;;;;15.77;8.13;;;;;;;35.54;51.22;97246.88;5091979;28;20033;-68
2023/06/25 09:58:01;;;;;;;20.40;8.70;;;;;;;35.56;53.10;97254.78;5074691;28;20079;-69
2023/06/25 10:00:34;;;;;;;17.60;8.45;;;;;;;35.78;52.32;97239.88;5045956;28;21618;-70
2023/06/25 10:03:04;;;;;;;;;;;;;;;35.75;52.82;97229.63;5045456;28;20051;-70
2023/06/25 10:05:34;;;;;;;16.42;8.85;;;;;;;35.54;54.91;97219.34;5061521;28;20461;-69
2023/06/25 10:08:05;;;;;;;19.52;9.35;;;;;;;35.49;56.08;97222.50;5047186;28;20044;-69
2023/06/25 10:10:34;;;;;;;18.17;10.10;;;;;;;35.46;54.16;97225.25;5064719;28;20044;-74
2023/06/25 10:13:05;;;;;;;18.45;9.07;;;;;;;35.44;53.44;97222.91;5065590;28;20078;-68
2023/06/25 10:15:36;;;;;;;18.65;8.20;;;;;;;35.50;51.97;97213.06;5059608;28;20147;-69
2023/06/25 10:18:07;;;;;;;15.63;8.10;;;;;;;35.55;49.34;97200.84;5055066;28;20045;-71
2023/06/25 10:20:38;;;;;;;16.35;7.63;;;;;;;35.49;52.20;97203.22;5062144;28;20480;-70
2023/06/25 10:23:12;;;;;;;15.68;8.20;;;;;;;35.50;51.62;97202.03;5057193;28;20052;-69
2023/06/25 10:25:53;;;;;;;16.58;7.35;;;;;;;35.34;52.66;97204.38;5070397;28;20054;-69
2023/06/25 10:28:30;;;;;;;14.57;7.50;;;;;;;35.41;54.11;97187.06;5058369;28;20045;-70
2023/06/25 10:31:15;;;;;;;13.23;7.47;;;;;;;35.49;53.59;97191.44;5058459;28;20053;-69
2023/06/25 10:33:46;;;;;;;17.58;7.95;;;;;;;35.69;51.94;97181.59;5055271;28;20051;-69
2023/06/25 10:36:24;;;;;;;22.67;7.70;;;;;;;35.72;52.49;97191.84;5060704;28;20738;-70
2023/06/25 10:38:56;;;;;;;14.00;7.22;;;;;;;35.77;52.64;97198.91;5060342;28;20134;-69
2023/06/25 10:41:32;;;;;;;12.77;6.57;;;;;;;35.79;51.82;97196.56;5061135;28;20520;-68
2023/06/25 10:44:02;;;;;;;16.70;7.03;;;;;;;35.89;51.35;97196.53;5060732;28;20126;-70
2023/06/25 10:46:32;;;;;;;17.50;7.97;;;;;;;35.85;51.92;97212.28;5060266;28;20226;-71
2023/06/25 10:49:03;;;;;;;18.33;7.10;;;;;;;35.82;52.18;97209.53;5062799;28;20036;-68
2023/06/25 10:51:34;;;;;;;15.77;6.88;;;;;;;35.89;53.14;97207.56;5067004;28;20044;-70
2023/06/25 10:54:05;;;;;;;;;;;;;;;35.99;54.00;97222.53;5063691;28;20044;-71
2023/06/25 10:56:34;;;;;;;16.27;7.40;;;;;;;36.01;54.28;97209.94;5099159;28;19966;-71
2023/06/25 10:59:04;;;;;;;18.88;7.88;;;;;;;35.93;52.39;97202.06;5061172;28;20040;-70
2023/06/25 11:01:37;;;;;;;20.30;7.13;;;;;;;35.88;51.69;97180.41;5091724;28;20127;-70
2023/06/25 11:04:14;;;;;;;26.70;8.05;;;;;;;35.86;52.64;97169.78;5066929;28;20049;-71
2023/06/25 11:06:44;;;;;;;31.27;8.77;;;;;;;35.90;53.33;97169.78;5054840;28;20133;-70
2023/06/25 11:09:13;;;;;;;24.13;8.75;;;;;;;35.94;52.76;97168.59;5057894;28;20143;-68
2023/06/25 11:11:43;;;;;;;24.10;8.55;;;;;;;35.92;54.15;97161.91;5044809;28;20057;-67
2023/06/25 11:14:16;;;;;;;22.55;7.88;;;;;;;35.97;54.13;97158.75;5060830;28;20108;-70
2023/06/25 11:16:48;;;;;;;23.33;7.47;;;;;;;35.93;52.96;97157.97;5060059;28;20053;-69
2023/06/25 11:19:18;;;;;;;19.63;8.20;;;;;;;35.97;53.73;97169.78;5066119;28;20056;-69
2023/06/25 11:22:07;;;;;;;23.58;8.82;;;;;;;35.98;53.51;97171.34;5066168;28;20052;-69
2023/06/25 11:24:43;;;;;;;21.52;7.95;;;;;;;35.97;53.07;97178.03;5061250;28;20053;-70
2023/06/25 11:27:14;;;;;;;18.50;8.05;;;;;;;36.03;54.00;97173.69;5063083;28;20072;-71
2023/06/25 11:29:47;;;;;;;27.97;8.40;;;;;;;36.12;53.73;97165.81;5061430;28;20052;-68
2023/06/25 11:32:23;;;;;;;27.40;8.40;;;;;;;36.12;54.93;97151.25;5063309;28;20052;-70
2023/06/25 11:34:53;;;;;;;34.15;8.77;;;;;;;36.18;55.07;97153.22;5060640;28;20048;-71
2023/06/25 11:37:23;;;;;;;20.10;8.35;;;;;;;36.05;54.43;97127.22;5067661;28;20139;-69
2023/06/25 11:39:53;;;;;;;26.15;8.18;;;;;;;35.93;57.41;97135.91;4715904;28;9999951;-67
2023/06/25 11:42:25;;;;;;;23.55;7.25;;;;;;;35.89;57.16;97129.63;5065550;28;20118;-68
2023/06/25 11:45:03;;;;;;;16.05;6.50;;;;;;;35.91;58.32;97113.47;5064202;28;20058;-68
2023/06/25 11:47:33;;;;;;;22.92;6.80;;;;;;;35.91;58.58;97113.47;5066112;28;20044;-70
2023/06/25 11:50:03;;;;;;;24.98;7.30;;;;;;;35.88;58.83;97128.06;5064898;28;20721;-70